sensor_id;sensor_type;location;lat;lon;timestamp;temperature;humidity
36660;DHT22;22654;51.054;3.654;2022-08-03T00:00:41;19.00;99.90
36660;DHT22;22654;51.054;3.654;2022-08-03T00:03:06;19.00;99.90
36660;DHT22;22654;51.054;3.654;2022-08-03T00:05:32;19.10;99.90
36660;DHT22;22654;51.054;3.654;2022-08-03T00:07:59;19.10;99.90
36660;DHT22;22654;51.054;3.654;2022-08-03T00:10:25;19.40;99.90
36660;DHT22;22654;51.054;3.654;2022-08-03T00:12:52;19.60;99.90
36660;DHT22;22654;51.054;3.654;2022-08-03T00:15:18;19.80;99.90
36660;DHT22;22654;51.054;3.654;2022-08-03T00:17:44;19.90;99.90
36660;DHT22;22654;51.054;3.654;2022-08-03T00:20:11;19.90;99.90
36660;DHT22;22654;51.054;3.654;2022-08-03T00:22:37;19.80;99.90
36660;DHT22;22654;51.054;3.654;2022-08-03T00:25:03;19.90;99.90
36660;DHT22;22654;51.054;3.654;2022-08-03T00:27:29;19.90;99.90
36660;DHT22;22654;51.054;3.654;2022-08-03T00:29:55;19.90;99.90
36660;DHT22;22654;51.054;3.654;2022-08-03T00:32:21;20.10;99.90
36660;DHT22;22654;51.054;3.654;2022-08-03T00:34:46;19.90;99.90
36660;DHT22;22654;51.054;3.654;2022-08-03T00:37:13;19.90;99.90
36660;DHT22;22654;51.054;3.654;2022-08-03T00:39:38;19.80;99.90
36660;DHT22;22654;51.054;3.654;2022-08-03T00:42:05;19.60;99.90
36660;DHT22;22654;51.054;3.654;2022-08-03T00:44:41;19.60;99.90
36660;DHT22;22654;51.054;3.654;2022-08-03T00:47:08;19.70;99.90
36660;DHT22;22654;51.054;3.654;2022-08-03T00:49:36;19.60;99.90
36660;DHT22;22654;51.054;3.654;2022-08-03T00:52:02;19.70;99.90
36660;DHT22;22654;51.054;3.654;2022-08-03T00:54:28;19.60;99.90
36660;DHT22;22654;51.054;3.654;2022-08-03T00:56:54;19.70;99.90
36660;DHT22;22654;51.054;3.654;2022-08-03T00:59:20;19.80;99.90
36660;DHT22;22654;51.054;3.654;2022-08-03T01:01:47;19.50;99.90
36660;DHT22;22654;51.054;3.654;2022-08-03T01:04:13;19.40;99.90
36660;DHT22;22654;51.054;3.654;2022-08-03T01:06:57;19.30;99.90
36660;DHT22;22654;51.054;3.654;2022-08-03T01:12:00;19.60;99.90
36660;DHT22;22654;51.054;3.654;2022-08-03T01:15:09;19.60;99.90
36660;DHT22;22654;51.054;3.654;2022-08-03T01:17:39;19.60;99.90
36660;DHT22;22654;51.054;3.654;2022-08-03T01:20:12;19.40;99.90
36660;DHT22;22654;51.054;3.654;2022-08-03T01:31:04;19.20;99.90
36660;DHT22;22654;51.054;3.654;2022-08-03T01:33:40;19.10;99.90
36660;DHT22;22654;51.054;3.654;2022-08-03T01:36:13;19.10;99.90
36660;DHT22;22654;51.054;3.654;2022-08-03T01:38:47;19.10;99.90
36660;DHT22;22654;51.054;3.654;2022-08-03T01:41:17;19.20;99.90
36660;DHT22;22654;51.054;3.654;2022-08-03T01:43:47;19.30;99.90
36660;DHT22;22654;51.054;3.654;2022-08-03T01:46:16;19.30;99.90
36660;DHT22;22654;51.054;3.654;2022-08-03T01:48:46;19.10;99.90
36660;DHT22;22654;51.054;3.654;2022-08-03T01:51:14;19.10;99.90
36660;DHT22;22654;51.054;3.654;2022-08-03T01:53:41;19.00;99.90
36660;DHT22;22654;51.054;3.654;2022-08-03T01:56:11;19.00;99.90
36660;DHT22;22654;51.054;3.654;2022-08-03T01:58:39;18.80;99.90
36660;DHT22;22654;51.054;3.654;2022-08-03T02:01:06;18.80;99.90
36660;DHT22;22654;51.054;3.654;2022-08-03T02:03:36;19.00;99.90
36660;DHT22;22654;51.054;3.654;2022-08-03T02:06:04;19.00;99.90
36660;DHT22;22654;51.054;3.654;2022-08-03T02:08:31;18.90;99.90
36660;DHT22;22654;51.054;3.654;2022-08-03T02:10:58;18.70;99.90
36660;DHT22;22654;51.054;3.654;2022-08-03T02:13:25;18.60;99.90
36660;DHT22;22654;51.054;3.654;2022-08-03T02:15:53;18.50;99.90
36660;DHT22;22654;51.054;3.654;2022-08-03T02:18:21;18.60;99.90
36660;DHT22;22654;51.054;3.654;2022-08-03T02:20:49;18.50;99.90
36660;DHT22;22654;51.054;3.654;2022-08-03T02:23:15;18.40;99.90
36660;DHT22;22654;51.054;3.654;2022-08-03T02:25:44;18.30;99.90
36660;DHT22;22654;51.054;3.654;2022-08-03T02:28:20;18.20;99.90
36660;DHT22;22654;51.054;3.654;2022-08-03T02:30:52;18.30;99.90
36660;DHT22;22654;51.054;3.654;2022-08-03T02:33:30;18.50;99.90
36660;DHT22;22654;51.054;3.654;2022-08-03T02:35:57;18.70;99.90
36660;DHT22;22654;51.054;3.654;2022-08-03T02:38:33;18.60;99.90
36660;DHT22;22654;51.054;3.654;2022-08-03T02:41:08;18.60;99.90
36660;DHT22;22654;51.054;3.654;2022-08-03T02:43:39;18.60;99.90
36660;DHT22;22654;51.054;3.654;2022-08-03T02:46:06;18.80;99.90
36660;DHT22;22654;51.054;3.654;2022-08-03T02:48:36;18.80;99.90
36660;DHT22;22654;51.054;3.654;2022-08-03T02:51:03;18.60;99.90
36660;DHT22;22654;51.054;3.654;2022-08-03T02:53:30;18.60;99.90
36660;DHT22;22654;51.054;3.654;2022-08-03T02:55:58;18.60;99.90
36660;DHT22;22654;51.054;3.654;2022-08-03T02:58:25;18.60;99.90
36660;DHT22;22654;51.054;3.654;2022-08-03T03:00:52;18.60;99.90
36660;DHT22;22654;51.054;3.654;2022-08-03T03:03:20;18.60;99.90
36660;DHT22;22654;51.054;3.654;2022-08-03T03:05:48;18.50;99.90
36660;DHT22;22654;51.054;3.654;2022-08-03T03:08:16;18.50;99.90
36660;DHT22;22654;51.054;3.654;2022-08-03T03:10:43;18.40;99.90
36660;DHT22;22654;51.054;3.654;2022-08-03T03:13:11;18.30;99.90
36660;DHT22;22654;51.054;3.654;2022-08-03T03:15:38;18.20;99.90
36660;DHT22;22654;51.054;3.654;2022-08-03T03:18:08;18.20;99.90
36660;DHT22;22654;51.054;3.654;2022-08-03T03:20:36;18.40;99.90
36660;DHT22;22654;51.054;3.654;2022-08-03T03:23:04;18.60;99.90
36660;DHT22;22654;51.054;3.654;2022-08-03T03:25:31;18.60;99.90
36660;DHT22;22654;51.054;3.654;2022-08-03T03:27:59;18.70;99.90
36660;DHT22;22654;51.054;3.654;2022-08-03T03:30:25;18.70;99.90
36660;DHT22;22654;51.054;3.654;2022-08-03T03:32:52;18.60;99.90
36660;DHT22;22654;51.054;3.654;2022-08-03T03:35:17;18.60;99.90
36660;DHT22;22654;51.054;3.654;2022-08-03T03:37:43;18.60;99.90
36660;DHT22;22654;51.054;3.654;2022-08-03T03:40:10;18.40;99.90
36660;DHT22;22654;51.054;3.654;2022-08-03T03:42:36;18.50;99.90
36660;DHT22;22654;51.054;3.654;2022-08-03T03:45:06;18.50;99.90
36660;DHT22;22654;51.054;3.654;2022-08-03T03:47:33;18.50;99.90
36660;DHT22;22654;51.054;3.654;2022-08-03T03:49:59;18.40;99.90
36660;DHT22;22654;51.054;3.654;2022-08-03T03:52:26;18.20;99.90
36660;DHT22;22654;51.054;3.654;2022-08-03T03:54:52;18.30;99.90
36660;DHT22;22654;51.054;3.654;2022-08-03T03:57:17;18.30;99.90
36660;DHT22;22654;51.054;3.654;2022-08-03T03:59:43;18.40;99.90
36660;DHT22;22654;51.054;3.654;2022-08-03T04:02:10;18.20;99.90
36660;DHT22;22654;51.054;3.654;2022-08-03T04:04:37;18.20;99.90
36660;DHT22;22654;51.054;3.654;2022-08-03T04:07:26;18.20;99.90
36660;DHT22;22654;51.054;3.654;2022-08-03T04:10:17;18.30;99.90
36660;DHT22;22654;51.054;3.654;2022-08-03T04:13:07;18.30;99.90
36660;DHT22;22654;51.054;3.654;2022-08-03T04:15:36;18.30;99.90
36660;DHT22;22654;51.054;3.654;2022-08-03T04:18:02;18.40;99.90
36660;DHT22;22654;51.054;3.654;2022-08-03T04:20:31;18.40;99.90
36660;DHT22;22654;51.054;3.654;2022-08-03T04:23:00;18.30;99.90
36660;DHT22;22654;51.054;3.654;2022-08-03T04:25:30;18.30;99.90
36660;DHT22;22654;51.054;3.654;2022-08-03T04:27:59;18.30;99.90
36660;DHT22;22654;51.054;3.654;2022-08-03T04:30:29;18.40;99.90
36660;DHT22;22654;51.054;3.654;2022-08-03T04:32:56;18.40;99.90
36660;DHT22;22654;51.054;3.654;2022-08-03T04:35:24;18.30;99.90
36660;DHT22;22654;51.054;3.654;2022-08-03T04:37:54;18.30;99.90
36660;DHT22;22654;51.054;3.654;2022-08-03T04:40:25;18.20;99.90
36660;DHT22;22654;51.054;3.654;2022-08-03T04:42:54;18.20;99.90
36660;DHT22;22654;51.054;3.654;2022-08-03T04:45:21;18.20;99.90
36660;DHT22;22654;51.054;3.654;2022-08-03T04:47:49;18.20;99.90
36660;DHT22;22654;51.054;3.654;2022-08-03T04:50:15;18.40;99.90
36660;DHT22;22654;51.054;3.654;2022-08-03T04:52:42;18.40;99.90
36660;DHT22;22654;51.054;3.654;2022-08-03T04:55:08;18.40;99.90
36660;DHT22;22654;51.054;3.654;2022-08-03T04:57:37;18.40;99.90
36660;DHT22;22654;51.054;3.654;2022-08-03T05:00:06;18.60;99.90
36660;DHT22;22654;51.054;3.654;2022-08-03T05:02:32;18.80;99.90
36660;DHT22;22654;51.054;3.654;2022-08-03T05:04:59;19.00;99.90
36660;DHT22;22654;51.054;3.654;2022-08-03T05:07:25;19.00;99.90
36660;DHT22;22654;51.054;3.654;2022-08-03T05:09:51;19.10;99.90
36660;DHT22;22654;51.054;3.654;2022-08-03T05:12:17;18.90;99.90
36660;DHT22;22654;51.054;3.654;2022-08-03T05:14:43;19.00;99.90
36660;DHT22;22654;51.054;3.654;2022-08-03T05:17:08;19.10;99.90
36660;DHT22;22654;51.054;3.654;2022-08-03T05:19:34;19.30;99.90
36660;DHT22;22654;51.054;3.654;2022-08-03T05:22:00;19.40;99.90
36660;DHT22;22654;51.054;3.654;2022-08-03T05:24:26;19.30;99.90
36660;DHT22;22654;51.054;3.654;2022-08-03T05:26:52;19.30;99.90
36660;DHT22;22654;51.054;3.654;2022-08-03T05:29:18;19.60;99.90
36660;DHT22;22654;51.054;3.654;2022-08-03T05:31:44;19.80;99.90
36660;DHT22;22654;51.054;3.654;2022-08-03T05:34:10;19.90;99.90
36660;DHT22;22654;51.054;3.654;2022-08-03T05:36:35;20.00;99.90
36660;DHT22;22654;51.054;3.654;2022-08-03T05:39:01;20.30;99.90
36660;DHT22;22654;51.054;3.654;2022-08-03T05:41:27;20.40;99.90
36660;DHT22;22654;51.054;3.654;2022-08-03T05:43:53;20.40;99.90
36660;DHT22;22654;51.054;3.654;2022-08-03T05:46:23;20.30;99.90
36660;DHT22;22654;51.054;3.654;2022-08-03T05:48:49;20.40;99.90
36660;DHT22;22654;51.054;3.654;2022-08-03T05:51:14;20.50;99.90
36660;DHT22;22654;51.054;3.654;2022-08-03T05:53:41;20.40;99.90
36660;DHT22;22654;51.054;3.654;2022-08-03T05:56:08;20.60;99.90
36660;DHT22;22654;51.054;3.654;2022-08-03T05:58:33;20.70;99.90
36660;DHT22;22654;51.054;3.654;2022-08-03T06:00:59;20.80;99.90
36660;DHT22;22654;51.054;3.654;2022-08-03T06:03:25;21.10;99.90
36660;DHT22;22654;51.054;3.654;2022-08-03T06:05:52;21.20;99.90
36660;DHT22;22654;51.054;3.654;2022-08-03T06:08:19;21.30;99.90
36660;DHT22;22654;51.054;3.654;2022-08-03T06:10:44;21.50;99.90
36660;DHT22;22654;51.054;3.654;2022-08-03T06:13:10;21.60;99.90
36660;DHT22;22654;51.054;3.654;2022-08-03T06:15:36;21.90;99.90
36660;DHT22;22654;51.054;3.654;2022-08-03T06:18:02;22.30;99.90
36660;DHT22;22654;51.054;3.654;2022-08-03T06:20:28;22.80;99.90
36660;DHT22;22654;51.054;3.654;2022-08-03T06:22:54;24.10;99.90
36660;DHT22;22654;51.054;3.654;2022-08-03T06:25:20;26.20;99.90
36660;DHT22;22654;51.054;3.654;2022-08-03T06:27:46;27.60;99.90
36660;DHT22;22654;51.054;3.654;2022-08-03T06:30:12;28.70;99.90
36660;DHT22;22654;51.054;3.654;2022-08-03T06:32:39;30.10;99.50
36660;DHT22;22654;51.054;3.654;2022-08-03T06:35:05;30.90;97.40
36660;DHT22;22654;51.054;3.654;2022-08-03T06:37:42;31.00;96.40
36660;DHT22;22654;51.054;3.654;2022-08-03T06:40:15;30.40;96.30
36660;DHT22;22654;51.054;3.654;2022-08-03T06:42:41;31.30;95.70
36660;DHT22;22654;51.054;3.654;2022-08-03T06:45:07;32.70;94.00
36660;DHT22;22654;51.054;3.654;2022-08-03T06:47:37;33.90;91.90
36660;DHT22;22654;51.054;3.654;2022-08-03T06:50:06;34.80;90.60
36660;DHT22;22654;51.054;3.654;2022-08-03T06:52:32;35.20;90.00
36660;DHT22;22654;51.054;3.654;2022-08-03T06:54:58;36.00;87.40
36660;DHT22;22654;51.054;3.654;2022-08-03T06:57:24;36.40;84.00
36660;DHT22;22654;51.054;3.654;2022-08-03T06:59:49;36.20;85.10
36660;DHT22;22654;51.054;3.654;2022-08-03T07:02:16;36.80;83.40
36660;DHT22;22654;51.054;3.654;2022-08-03T07:04:43;37.00;81.80
36660;DHT22;22654;51.054;3.654;2022-08-03T07:07:08;36.90;80.60
36660;DHT22;22654;51.054;3.654;2022-08-03T07:09:34;37.30;80.40
36660;DHT22;22654;51.054;3.654;2022-08-03T07:12:02;37.30;79.30
36660;DHT22;22654;51.054;3.654;2022-08-03T07:14:30;37.60;78.90
36660;DHT22;22654;51.054;3.654;2022-08-03T07:16:55;37.80;78.40
36660;DHT22;22654;51.054;3.654;2022-08-03T07:19:21;37.90;77.30
36660;DHT22;22654;51.054;3.654;2022-08-03T07:21:47;38.10;77.00
36660;DHT22;22654;51.054;3.654;2022-08-03T07:24:13;38.00;76.20
36660;DHT22;22654;51.054;3.654;2022-08-03T07:26:39;37.60;76.30
36660;DHT22;22654;51.054;3.654;2022-08-03T07:29:05;37.40;76.90
36660;DHT22;22654;51.054;3.654;2022-08-03T07:31:30;37.70;75.70
36660;DHT22;22654;51.054;3.654;2022-08-03T07:33:56;37.70;75.70
36660;DHT22;22654;51.054;3.654;2022-08-03T07:36:22;37.70;75.50
36660;DHT22;22654;51.054;3.654;2022-08-03T07:38:49;37.70;75.50
36660;DHT22;22654;51.054;3.654;2022-08-03T07:41:15;37.50;76.10
36660;DHT22;22654;51.054;3.654;2022-08-03T07:43:41;37.80;74.80
36660;DHT22;22654;51.054;3.654;2022-08-03T07:46:06;37.30;75.70
36660;DHT22;22654;51.054;3.654;2022-08-03T07:48:32;37.20;76.10
36660;DHT22;22654;51.054;3.654;2022-08-03T07:50:58;37.30;75.20
36660;DHT22;22654;51.054;3.654;2022-08-03T07:53:24;37.20;75.40
36660;DHT22;22654;51.054;3.654;2022-08-03T07:55:50;37.30;75.40
36660;DHT22;22654;51.054;3.654;2022-08-03T07:58:15;37.20;75.40
36660;DHT22;22654;51.054;3.654;2022-08-03T08:00:43;37.30;75.00
36660;DHT22;22654;51.054;3.654;2022-08-03T08:03:09;37.10;75.00
36660;DHT22;22654;51.054;3.654;2022-08-03T08:05:35;37.00;75.30
36660;DHT22;22654;51.054;3.654;2022-08-03T08:08:02;36.90;75.50
36660;DHT22;22654;51.054;3.654;2022-08-03T08:10:29;36.60;75.30
36660;DHT22;22654;51.054;3.654;2022-08-03T08:12:56;36.00;76.50
36660;DHT22;22654;51.054;3.654;2022-08-03T08:15:22;35.70;77.20
36660;DHT22;22654;51.054;3.654;2022-08-03T08:17:50;35.50;77.30
36660;DHT22;22654;51.054;3.654;2022-08-03T08:20:25;35.10;77.50
36660;DHT22;22654;51.054;3.654;2022-08-03T08:22:51;34.60;78.10
36660;DHT22;22654;51.054;3.654;2022-08-03T08:25:17;34.20;78.90
36660;DHT22;22654;51.054;3.654;2022-08-03T08:27:44;33.40;80.50
36660;DHT22;22654;51.054;3.654;2022-08-03T08:30:12;32.70;82.40
36660;DHT22;22654;51.054;3.654;2022-08-03T08:32:38;31.80;83.60
36660;DHT22;22654;51.054;3.654;2022-08-03T08:35:05;31.20;84.90
36660;DHT22;22654;51.054;3.654;2022-08-03T08:37:32;30.50;86.70
36660;DHT22;22654;51.054;3.654;2022-08-03T08:39:58;30.30;87.20
36660;DHT22;22654;51.054;3.654;2022-08-03T08:42:24;30.10;88.20
36660;DHT22;22654;51.054;3.654;2022-08-03T08:44:50;30.00;87.90
36660;DHT22;22654;51.054;3.654;2022-08-03T08:47:18;29.80;87.70
36660;DHT22;22654;51.054;3.654;2022-08-03T08:49:45;29.70;88.40
36660;DHT22;22654;51.054;3.654;2022-08-03T08:52:13;29.50;88.50
36660;DHT22;22654;51.054;3.654;2022-08-03T08:54:40;29.40;89.70
36660;DHT22;22654;51.054;3.654;2022-08-03T08:57:10;29.40;89.90
36660;DHT22;22654;51.054;3.654;2022-08-03T08:59:36;29.50;89.20
36660;DHT22;22654;51.054;3.654;2022-08-03T09:02:02;29.50;89.40
36660;DHT22;22654;51.054;3.654;2022-08-03T09:04:28;29.60;89.50
36660;DHT22;22654;51.054;3.654;2022-08-03T09:06:55;29.70;89.70
36660;DHT22;22654;51.054;3.654;2022-08-03T09:09:21;29.80;89.00
36660;DHT22;22654;51.054;3.654;2022-08-03T09:11:48;29.90;89.60
36660;DHT22;22654;51.054;3.654;2022-08-03T09:14:17;30.10;89.20
36660;DHT22;22654;51.054;3.654;2022-08-03T09:16:57;30.30;87.50
36660;DHT22;22654;51.054;3.654;2022-08-03T09:19:33;30.30;88.00
36660;DHT22;22654;51.054;3.654;2022-08-03T09:22:14;30.30;87.40
36660;DHT22;22654;51.054;3.654;2022-08-03T09:24:57;30.20;87.60
36660;DHT22;22654;51.054;3.654;2022-08-03T09:27:23;30.10;86.20
36660;DHT22;22654;51.054;3.654;2022-08-03T09:29:51;30.10;86.70
36660;DHT22;22654;51.054;3.654;2022-08-03T09:32:22;30.10;86.40
36660;DHT22;22654;51.054;3.654;2022-08-03T09:34:50;30.20;86.60
36660;DHT22;22654;51.054;3.654;2022-08-03T09:37:18;30.30;86.30
36660;DHT22;22654;51.054;3.654;2022-08-03T09:39:45;30.50;86.60
36660;DHT22;22654;51.054;3.654;2022-08-03T09:42:16;30.40;86.00
36660;DHT22;22654;51.054;3.654;2022-08-03T09:44:47;30.50;87.20
36660;DHT22;22654;51.054;3.654;2022-08-03T09:47:15;30.70;86.20
36660;DHT22;22654;51.054;3.654;2022-08-03T09:49:42;30.80;85.40
36660;DHT22;22654;51.054;3.654;2022-08-03T09:52:21;30.70;85.60
36660;DHT22;22654;51.054;3.654;2022-08-03T09:54:54;30.70;86.10
36660;DHT22;22654;51.054;3.654;2022-08-03T09:57:21;30.70;85.30
36660;DHT22;22654;51.054;3.654;2022-08-03T09:59:48;30.70;85.20
36660;DHT22;22654;51.054;3.654;2022-08-03T10:02:25;30.70;84.80
36660;DHT22;22654;51.054;3.654;2022-08-03T10:04:52;30.90;84.50
36660;DHT22;22654;51.054;3.654;2022-08-03T10:07:20;30.90;85.00
36660;DHT22;22654;51.054;3.654;2022-08-03T10:12:19;30.90;85.40
36660;DHT22;22654;51.054;3.654;2022-08-03T10:14:46;31.00;84.80
36660;DHT22;22654;51.054;3.654;2022-08-03T10:17:12;31.10;85.40
36660;DHT22;22654;51.054;3.654;2022-08-03T10:19:38;31.00;85.00
36660;DHT22;22654;51.054;3.654;2022-08-03T10:22:22;31.10;85.40
36660;DHT22;22654;51.054;3.654;2022-08-03T10:24:59;31.30;86.10
36660;DHT22;22654;51.054;3.654;2022-08-03T10:27:31;31.50;85.90
36660;DHT22;22654;51.054;3.654;2022-08-03T10:29:59;31.50;84.30
36660;DHT22;22654;51.054;3.654;2022-08-03T10:32:42;31.50;84.80
36660;DHT22;22654;51.054;3.654;2022-08-03T10:35:12;31.70;85.00
36660;DHT22;22654;51.054;3.654;2022-08-03T10:37:43;31.60;84.50
36660;DHT22;22654;51.054;3.654;2022-08-03T10:40:13;31.60;84.80
36660;DHT22;22654;51.054;3.654;2022-08-03T10:42:41;31.80;84.30
36660;DHT22;22654;51.054;3.654;2022-08-03T10:45:19;31.80;84.50
36660;DHT22;22654;51.054;3.654;2022-08-03T10:47:47;31.90;84.40
36660;DHT22;22654;51.054;3.654;2022-08-03T10:50:13;32.00;84.00
36660;DHT22;22654;51.054;3.654;2022-08-03T10:53:06;32.10;84.10
36660;DHT22;22654;51.054;3.654;2022-08-03T11:01:07;32.40;84.00
36660;DHT22;22654;51.054;3.654;2022-08-03T11:06:21;32.30;82.90
36660;DHT22;22654;51.054;3.654;2022-08-03T11:08:49;32.40;82.80
36660;DHT22;22654;51.054;3.654;2022-08-03T11:16:23;32.70;83.20
36660;DHT22;22654;51.054;3.654;2022-08-03T11:19:01;32.80;83.30
36660;DHT22;22654;51.054;3.654;2022-08-03T11:27:20;32.20;83.70
36660;DHT22;22654;51.054;3.654;2022-08-03T11:29:58;32.40;84.10
36660;DHT22;22654;51.054;3.654;2022-08-03T11:40:46;33.00;82.70
36660;DHT22;22654;51.054;3.654;2022-08-03T11:45:58;33.30;81.80
36660;DHT22;22654;51.054;3.654;2022-08-03T11:51:02;33.20;81.20
36660;DHT22;22654;51.054;3.654;2022-08-03T11:53:29;33.40;81.40
36660;DHT22;22654;51.054;3.654;2022-08-03T11:55:59;33.60;80.80
36660;DHT22;22654;51.054;3.654;2022-08-03T11:58:25;33.80;80.40
36660;DHT22;22654;51.054;3.654;2022-08-03T12:00:56;33.90;80.30
36660;DHT22;22654;51.054;3.654;2022-08-03T12:03:31;34.00;80.10
36660;DHT22;22654;51.054;3.654;2022-08-03T12:05:57;34.00;79.10
36660;DHT22;22654;51.054;3.654;2022-08-03T12:10:52;34.20;79.10
36660;DHT22;22654;51.054;3.654;2022-08-03T12:13:19;34.20;78.90
36660;DHT22;22654;51.054;3.654;2022-08-03T12:15:54;33.80;79.30
36660;DHT22;22654;51.054;3.654;2022-08-03T12:18:21;33.70;79.60
36660;DHT22;22654;51.054;3.654;2022-08-03T12:20:48;33.90;80.00
36660;DHT22;22654;51.054;3.654;2022-08-03T12:23:15;34.50;78.90
36660;DHT22;22654;51.054;3.654;2022-08-03T12:25:42;34.70;78.00
36660;DHT22;22654;51.054;3.654;2022-08-03T12:28:17;34.70;78.40
36660;DHT22;22654;51.054;3.654;2022-08-03T12:30:46;35.00;78.90
36660;DHT22;22654;51.054;3.654;2022-08-03T12:33:23;35.30;77.80
36660;DHT22;22654;51.054;3.654;2022-08-03T12:38:30;35.00;77.20
36660;DHT22;22654;51.054;3.654;2022-08-03T12:41:07;34.90;77.40
36660;DHT22;22654;51.054;3.654;2022-08-03T12:43:36;35.00;77.60
36660;DHT22;22654;51.054;3.654;2022-08-03T12:46:13;35.00;76.40
36660;DHT22;22654;51.054;3.654;2022-08-03T12:48:59;34.60;77.70
36660;DHT22;22654;51.054;3.654;2022-08-03T12:51:26;34.50;77.30
36660;DHT22;22654;51.054;3.654;2022-08-03T12:53:54;34.20;78.10
36660;DHT22;22654;51.054;3.654;2022-08-03T12:56:20;34.30;77.60
36660;DHT22;22654;51.054;3.654;2022-08-03T12:58:46;34.30;78.40
36660;DHT22;22654;51.054;3.654;2022-08-03T13:01:15;34.50;77.90
36660;DHT22;22654;51.054;3.654;2022-08-03T13:03:47;34.60;78.40
36660;DHT22;22654;51.054;3.654;2022-08-03T13:06:23;34.90;77.70
36660;DHT22;22654;51.054;3.654;2022-08-03T13:09:01;35.00;77.50
36660;DHT22;22654;51.054;3.654;2022-08-03T13:11:27;35.30;77.20
36660;DHT22;22654;51.054;3.654;2022-08-03T13:13:54;35.60;76.80
36660;DHT22;22654;51.054;3.654;2022-08-03T13:16:20;35.80;75.70
36660;DHT22;22654;51.054;3.654;2022-08-03T13:18:47;35.70;75.60
36660;DHT22;22654;51.054;3.654;2022-08-03T13:21:17;35.60;75.70
36660;DHT22;22654;51.054;3.654;2022-08-03T13:23:44;35.70;75.80
36660;DHT22;22654;51.054;3.654;2022-08-03T13:26:10;35.60;76.20
36660;DHT22;22654;51.054;3.654;2022-08-03T13:28:39;35.80;75.70
36660;DHT22;22654;51.054;3.654;2022-08-03T13:31:06;35.80;75.70
36660;DHT22;22654;51.054;3.654;2022-08-03T13:33:32;36.00;74.90
36660;DHT22;22654;51.054;3.654;2022-08-03T13:36:06;36.20;75.10
36660;DHT22;22654;51.054;3.654;2022-08-03T13:38:32;36.40;74.00
36660;DHT22;22654;51.054;3.654;2022-08-03T13:41:00;36.50;75.40
36660;DHT22;22654;51.054;3.654;2022-08-03T13:43:26;36.50;74.50
36660;DHT22;22654;51.054;3.654;2022-08-03T13:45:52;36.40;73.90
36660;DHT22;22654;51.054;3.654;2022-08-03T13:48:18;36.20;74.50
36660;DHT22;22654;51.054;3.654;2022-08-03T13:50:43;36.00;74.70
36660;DHT22;22654;51.054;3.654;2022-08-03T13:53:09;36.20;74.90
36660;DHT22;22654;51.054;3.654;2022-08-03T13:55:35;36.40;74.30
36660;DHT22;22654;51.054;3.654;2022-08-03T13:58:01;36.50;74.00
36660;DHT22;22654;51.054;3.654;2022-08-03T14:00:26;36.70;73.30
36660;DHT22;22654;51.054;3.654;2022-08-03T14:02:52;36.80;73.80
36660;DHT22;22654;51.054;3.654;2022-08-03T14:05:18;36.90;73.20
36660;DHT22;22654;51.054;3.654;2022-08-03T14:07:44;36.90;73.80
36660;DHT22;22654;51.054;3.654;2022-08-03T14:10:10;36.60;73.00
36660;DHT22;22654;51.054;3.654;2022-08-03T14:12:36;36.30;73.30
36660;DHT22;22654;51.054;3.654;2022-08-03T14:15:02;36.30;73.10
36660;DHT22;22654;51.054;3.654;2022-08-03T14:17:28;36.10;73.30
36660;DHT22;22654;51.054;3.654;2022-08-03T14:19:54;36.20;73.00
36660;DHT22;22654;51.054;3.654;2022-08-03T14:22:20;36.20;73.60
36660;DHT22;22654;51.054;3.654;2022-08-03T14:24:46;36.40;73.20
36660;DHT22;22654;51.054;3.654;2022-08-03T14:27:11;36.40;73.50
36660;DHT22;22654;51.054;3.654;2022-08-03T14:29:37;36.50;72.90
36660;DHT22;22654;51.054;3.654;2022-08-03T14:32:03;36.90;73.40
36660;DHT22;22654;51.054;3.654;2022-08-03T14:34:29;36.80;72.30
36660;DHT22;22654;51.054;3.654;2022-08-03T14:36:55;36.70;72.50
36660;DHT22;22654;51.054;3.654;2022-08-03T14:39:21;37.00;72.70
36660;DHT22;22654;51.054;3.654;2022-08-03T14:41:46;37.20;71.90
36660;DHT22;22654;51.054;3.654;2022-08-03T14:44:12;37.40;71.50
36660;DHT22;22654;51.054;3.654;2022-08-03T14:46:38;37.20;71.60
36660;DHT22;22654;51.054;3.654;2022-08-03T14:49:04;37.30;72.20
36660;DHT22;22654;51.054;3.654;2022-08-03T14:51:30;37.60;70.80
36660;DHT22;22654;51.054;3.654;2022-08-03T14:53:56;37.20;70.70
36660;DHT22;22654;51.054;3.654;2022-08-03T14:56:21;36.70;72.00
36660;DHT22;22654;51.054;3.654;2022-08-03T14:58:47;36.80;72.50
36660;DHT22;22654;51.054;3.654;2022-08-03T15:01:13;37.20;71.20
36660;DHT22;22654;51.054;3.654;2022-08-03T15:03:39;37.10;70.60
36660;DHT22;22654;51.054;3.654;2022-08-03T15:06:05;36.70;70.90
36660;DHT22;22654;51.054;3.654;2022-08-03T15:08:31;36.70;71.70
36660;DHT22;22654;51.054;3.654;2022-08-03T15:10:57;37.10;70.50
36660;DHT22;22654;51.054;3.654;2022-08-03T15:13:22;37.20;70.30
36660;DHT22;22654;51.054;3.654;2022-08-03T15:15:49;37.10;70.60
36660;DHT22;22654;51.054;3.654;2022-08-03T15:18:16;37.70;70.40
36660;DHT22;22654;51.054;3.654;2022-08-03T15:20:42;38.30;70.00
36660;DHT22;22654;51.054;3.654;2022-08-03T15:23:07;38.60;69.00
36660;DHT22;22654;51.054;3.654;2022-08-03T15:25:33;38.90;69.50
36660;DHT22;22654;51.054;3.654;2022-08-03T15:28:05;38.60;69.00
36660;DHT22;22654;51.054;3.654;2022-08-03T15:30:31;37.70;69.10
36660;DHT22;22654;51.054;3.654;2022-08-03T15:33:00;37.80;69.00
36660;DHT22;22654;51.054;3.654;2022-08-03T15:35:26;38.30;69.00
36660;DHT22;22654;51.054;3.654;2022-08-03T15:37:53;39.10;67.80
36660;DHT22;22654;51.054;3.654;2022-08-03T15:40:19;39.50;68.00
36660;DHT22;22654;51.054;3.654;2022-08-03T15:42:45;39.50;67.50
36660;DHT22;22654;51.054;3.654;2022-08-03T15:45:11;39.40;67.20
36660;DHT22;22654;51.054;3.654;2022-08-03T15:47:36;39.60;66.80
36660;DHT22;22654;51.054;3.654;2022-08-03T15:50:03;40.40;66.30
36660;DHT22;22654;51.054;3.654;2022-08-03T15:52:29;40.90;65.30
36660;DHT22;22654;51.054;3.654;2022-08-03T15:54:55;41.70;64.20
36660;DHT22;22654;51.054;3.654;2022-08-03T15:57:21;41.80;63.80
36660;DHT22;22654;51.054;3.654;2022-08-03T15:59:46;42.30;63.30
36660;DHT22;22654;51.054;3.654;2022-08-03T16:02:12;42.30;63.20
36660;DHT22;22654;51.054;3.654;2022-08-03T16:04:38;42.50;63.10
36660;DHT22;22654;51.054;3.654;2022-08-03T16:07:04;42.30;63.00
36660;DHT22;22654;51.054;3.654;2022-08-03T16:09:30;41.90;63.30
36660;DHT22;22654;51.054;3.654;2022-08-03T16:11:55;42.10;63.40
36660;DHT22;22654;51.054;3.654;2022-08-03T16:14:21;42.00;63.40
36660;DHT22;22654;51.054;3.654;2022-08-03T16:16:47;42.40;62.90
36660;DHT22;22654;51.054;3.654;2022-08-03T16:19:13;42.70;62.60
36660;DHT22;22654;51.054;3.654;2022-08-03T16:21:39;43.00;61.60
36660;DHT22;22654;51.054;3.654;2022-08-03T16:24:05;43.00;61.80
36660;DHT22;22654;51.054;3.654;2022-08-03T16:26:31;42.10;62.10